createdAt,value
2023-10-26T00:00:03.300Z,29.25
2023-10-26T00:02:41.798Z,29.26
2023-10-26T00:05:11.806Z,29.22
2023-10-26T00:07:41.683Z,29.31
2023-10-26T00:10:11.519Z,29.39
2023-10-26T00:12:41.457Z,29.27
2023-10-26T00:15:11.801Z,29.44
2023-10-26T00:17:42.417Z,29.32
2023-10-26T00:20:12.867Z,29.43
2023-10-26T00:22:42.711Z,29.47
2023-10-26T00:25:12.946Z,29.55
2023-10-26T00:27:43.041Z,29.61
2023-10-26T00:30:16.275Z,29.65
2023-10-26T00:32:47.060Z,29.71
2023-10-26T00:35:16.927Z,29.83
2023-10-26T00:37:46.784Z,29.86
2023-10-26T00:40:17.397Z,29.88
2023-10-26T00:42:47.394Z,29.92
2023-10-26T00:45:17.725Z,29.97
2023-10-26T00:47:47.500Z,30.03
2023-10-26T00:50:17.911Z,30.13
2023-10-26T00:52:48.349Z,30.23
2023-10-26T00:55:18.721Z,30.32
2023-10-26T00:57:48.429Z,30.46
2023-10-26T01:00:18.519Z,30.59
2023-10-26T01:02:48.761Z,30.67
2023-10-26T01:05:18.569Z,30.75
2023-10-26T01:07:48.525Z,30.75
2023-10-26T01:10:18.413Z,30.82
2023-10-26T01:12:49.260Z,30.82
2023-10-26T01:15:19.256Z,30.93
2023-10-26T01:17:49.494Z,31.01
2023-10-26T01:20:21.268Z,31.05
2023-10-26T01:22:53.736Z,31.12
2023-10-26T01:25:23.695Z,31.13
2023-10-26T01:27:54.718Z,31.07
2023-10-26T01:30:28.855Z,31.16
2023-10-26T01:32:58.785Z,31.25
2023-10-26T01:35:28.876Z,31.27
2023-10-26T01:37:58.575Z,31.32
2023-10-26T01:40:29.059Z,31.37
2023-10-26T01:42:59.780Z,31.34
2023-10-26T01:45:31.978Z,31.32
2023-10-26T01:48:05.076Z,31.42
2023-10-26T01:50:35.616Z,31.47
2023-10-26T01:53:05.459Z,31.47
2023-10-26T01:55:35.386Z,31.52
2023-10-26T02:00:52.155Z,31.65
2023-10-26T02:03:22.140Z,31.69
2023-10-26T02:05:52.480Z,31.68
2023-10-26T02:08:23.724Z,31.79
2023-10-26T02:10:54.410Z,31.84
2023-10-26T02:13:27.952Z,31.82
2023-10-26T02:15:59.909Z,31.92
2023-10-26T02:18:34.726Z,31.98
2023-10-26T02:21:04.910Z,31.98
2023-10-26T02:23:34.763Z,32.01
2023-10-26T02:26:04.552Z,32.05
2023-10-26T02:28:35.376Z,32.07
2023-10-26T02:31:05.892Z,32.05
2023-10-26T02:33:36.419Z,32.02
2023-10-26T02:36:08.768Z,32.11
2023-10-26T02:38:39.296Z,32.14
2023-10-26T02:41:13.881Z,32.17
2023-10-26T02:43:44.188Z,32.29
2023-10-26T02:46:14.057Z,32.28
2023-10-26T02:48:44.130Z,32.34
2023-10-26T02:51:14.823Z,32.37
2023-10-26T02:53:45.099Z,32.49
2023-10-26T02:56:15.295Z,32.52
2023-10-26T02:58:45.988Z,32.57
2023-10-26T03:01:16.271Z,32.57
2023-10-26T03:03:46.424Z,32.54
2023-10-26T03:06:17.375Z,32.60
2023-10-26T03:08:47.696Z,32.70
2023-10-26T03:11:17.684Z,32.70
2023-10-26T03:13:48.331Z,32.72
2023-10-26T03:16:18.745Z,32.75
2023-10-26T03:18:49.122Z,32.82
2023-10-26T03:21:21.094Z,32.88
2023-10-26T03:23:59.987Z,32.89
2023-10-26T03:26:29.905Z,32.89
2023-10-26T03:29:00.083Z,32.97
2023-10-26T03:31:29.865Z,33.04
2023-10-26T03:34:00.229Z,33.12
2023-10-26T03:36:30.198Z,33.16
2023-10-26T03:39:00.278Z,33.17
2023-10-26T03:41:30.464Z,33.24
2023-10-26T03:44:00.667Z,33.27
2023-10-26T03:46:32.992Z,33.36
2023-10-26T03:49:03.143Z,33.42
2023-10-26T03:51:33.182Z,33.41
2023-10-26T03:54:05.277Z,33.50
2023-10-26T03:56:35.162Z,33.52
2023-10-26T03:59:05.095Z,33.51
2023-10-26T04:01:40.038Z,33.48
2023-10-26T04:04:10.073Z,33.55
2023-10-26T04:06:41.010Z,33.60
2023-10-26T04:09:11.352Z,33.58
2023-10-26T04:11:46.483Z,33.64
2023-10-26T04:14:16.577Z,33.74
2023-10-26T04:16:49.801Z,33.82
2023-10-26T04:19:20.173Z,33.82
2023-10-26T04:21:50.077Z,33.83
2023-10-26T04:24:21.038Z,33.86
2023-10-26T04:26:51.544Z,33.94
2023-10-26T04:29:23.481Z,33.88
2023-10-26T04:31:53.493Z,33.90
2023-10-26T04:34:23.632Z,33.97
2023-10-26T04:36:54.556Z,33.97
2023-10-26T04:39:24.757Z,34.05
2023-10-26T04:41:54.704Z,34.11
2023-10-26T04:44:25.308Z,34.06
2023-10-26T04:46:55.201Z,34.10
2023-10-26T04:49:25.120Z,34.08
2023-10-26T04:51:55.032Z,34.15
2023-10-26T04:54:26.162Z,34.22
2023-10-26T04:56:56.760Z,34.30
2023-10-26T04:59:26.674Z,34.35
2023-10-26T05:01:56.645Z,34.33
2023-10-26T05:04:26.535Z,34.30
2023-10-26T05:06:56.741Z,34.45
2023-10-26T05:09:26.834Z,34.44
2023-10-26T05:11:57.071Z,34.48
2023-10-26T05:14:28.085Z,34.53
2023-10-26T05:16:58.698Z,34.55
2023-10-26T05:19:29.679Z,34.64
2023-10-26T05:22:01.302Z,34.71
2023-10-26T05:24:33.008Z,34.77
2023-10-26T05:27:03.080Z,34.89
2023-10-26T05:29:32.966Z,34.96
2023-10-26T05:32:02.868Z,35.00
2023-10-26T05:34:33.281Z,35.05
2023-10-26T05:37:03.623Z,35.11
2023-10-26T05:39:35.115Z,35.07
2023-10-26T05:42:06.704Z,35.13
2023-10-26T05:44:37.843Z,35.16
2023-10-26T05:47:08.758Z,35.24
2023-10-26T05:49:38.823Z,35.29
2023-10-26T05:52:08.825Z,35.42
2023-10-26T05:54:39.320Z,35.33
2023-10-26T05:57:09.388Z,35.30
2023-10-26T05:59:42.768Z,35.20
2023-10-26T06:02:12.613Z,35.08
2023-10-26T06:04:42.717Z,35.00
2023-10-26T06:07:12.876Z,34.88
2023-10-26T06:09:42.742Z,34.84
2023-10-26T06:12:12.640Z,34.78
2023-10-26T06:14:42.669Z,34.76
2023-10-26T06:17:13.469Z,34.70
2023-10-26T06:19:43.460Z,34.69
2023-10-26T06:22:13.887Z,34.68
2023-10-26T06:24:45.022Z,34.65
2023-10-26T06:27:15.236Z,34.64
2023-10-26T06:29:46.842Z,34.63
2023-10-26T06:32:16.767Z,34.61
2023-10-26T06:34:47.750Z,34.59
2023-10-26T06:37:17.618Z,34.51
2023-10-26T06:39:49.443Z,34.51
2023-10-26T06:42:19.510Z,34.35
2023-10-26T06:45:01.576Z,34.25
2023-10-26T06:47:34.430Z,34.22
2023-10-26T06:50:04.277Z,34.22
2023-10-26T06:52:34.169Z,34.16
2023-10-26T06:55:12.017Z,34.16
2023-10-26T06:57:45.901Z,34.13
2023-10-26T07:00:16.379Z,34.09
2023-10-26T07:02:47.289Z,34.13
2023-10-26T07:05:17.212Z,34.17
2023-10-26T07:07:47.753Z,34.13
2023-10-26T07:10:18.912Z,34.07
2023-10-26T07:12:49.594Z,34.05
2023-10-26T07:15:19.361Z,33.97
2023-10-26T07:17:49.228Z,33.96
2023-10-26T07:20:19.938Z,33.96
2023-10-26T07:22:50.379Z,33.94
2023-10-26T07:25:20.225Z,33.96
2023-10-26T07:27:50.006Z,33.99
2023-10-26T07:30:20.253Z,34.05
2023-10-26T07:32:50.104Z,34.04
2023-10-26T07:35:20.022Z,34.09
2023-10-26T07:37:58.002Z,34.08
2023-10-26T07:40:42.718Z,33.97
2023-10-26T07:43:12.711Z,33.95
2023-10-26T07:45:42.454Z,33.97
2023-10-26T07:48:13.210Z,33.94
2023-10-26T07:50:43.740Z,34.01
2023-10-26T07:53:14.755Z,34.04
2023-10-26T07:55:46.394Z,34.04
2023-10-26T07:58:16.803Z,34.04
2023-10-26T08:00:46.847Z,34.08
2023-10-26T08:03:16.848Z,34.08
2023-10-26T08:05:57.776Z,34.08
2023-10-26T08:08:28.196Z,34.00
2023-10-26T08:11:17.173Z,34.01
2023-10-26T08:13:47.979Z,34.02
2023-10-26T08:16:40.688Z,34.01
2023-10-26T08:19:09.034Z,34.04
2023-10-26T08:21:42.215Z,34.00
2023-10-26T08:24:12.671Z,33.99
2023-10-26T08:26:46.023Z,33.98
2023-10-26T08:29:24.578Z,33.98
2023-10-26T08:32:00.596Z,34.04
2023-10-26T08:34:30.843Z,33.99
2023-10-26T08:39:36.434Z,34.01
2023-10-26T08:42:06.768Z,34.04
2023-10-26T08:44:36.967Z,34.01
2023-10-26T08:47:11.861Z,34.03
2023-10-26T08:50:03.579Z,34.02
2023-10-26T08:52:39.999Z,34.03
2023-10-26T08:55:11.055Z,34.04
2023-10-26T08:57:52.066Z,33.99
2023-10-26T09:00:22.504Z,33.96
2023-10-26T09:02:53.037Z,33.97
2023-10-26T09:05:24.724Z,33.95
2023-10-26T09:07:55.018Z,33.99
2023-10-26T09:10:35.220Z,33.96
2023-10-26T09:13:08.172Z,33.92
2023-10-26T09:15:52.169Z,33.95
2023-10-26T09:18:28.394Z,33.92
2023-10-26T09:21:12.329Z,33.86
2023-10-26T09:23:43.163Z,33.85
2023-10-26T09:26:13.465Z,33.81
2023-10-26T09:28:50.298Z,33.79
2023-10-26T09:31:21.496Z,33.70
2023-10-26T10:05:02.395Z,33.48
2023-10-26T10:07:48.247Z,33.46
2023-10-26T10:10:18.387Z,33.40
2023-10-26T10:12:55.125Z,33.46
2023-10-26T10:15:43.233Z,33.46
2023-10-26T10:18:14.020Z,33.36
2023-10-26T10:20:44.347Z,33.37
2023-10-26T10:23:34.599Z,33.42
2023-10-26T10:26:25.994Z,33.44
2023-10-26T10:28:56.801Z,33.41
2023-10-26T10:31:41.082Z,33.40
2023-10-26T10:34:12.545Z,33.39
2023-10-26T10:37:14.802Z,33.45
2023-10-26T10:40:15.867Z,33.42
2023-10-26T10:42:50.700Z,33.41
2023-10-26T10:45:24.330Z,33.41
2023-10-26T10:47:54.951Z,33.42
2023-10-26T10:50:32.274Z,33.41
2023-10-26T10:53:03.092Z,33.36
2023-10-26T10:55:35.160Z,33.39
2023-10-26T10:58:06.161Z,33.37
2023-10-26T11:00:47.666Z,33.32
2023-10-26T11:03:23.907Z,33.37
2023-10-26T11:05:54.085Z,33.36
2023-10-26T11:08:24.118Z,33.28
2023-10-26T11:10:54.621Z,33.35
2023-10-26T11:13:25.534Z,33.32
2023-10-26T11:15:56.146Z,33.29
2023-10-26T11:18:26.705Z,33.31
2023-10-26T11:20:57.668Z,33.27
2023-10-26T11:23:27.849Z,33.33
2023-10-26T11:25:57.837Z,33.33
2023-10-26T11:28:35.804Z,33.31
2023-10-26T11:31:06.457Z,33.33
2023-10-26T11:33:39.348Z,33.31
2023-10-26T11:36:13.526Z,33.31
2023-10-26T11:38:51.298Z,33.23
2023-10-26T11:41:30.801Z,33.24
2023-10-26T11:44:04.264Z,33.27
2023-10-26T11:46:38.648Z,33.26
2023-10-26T11:49:08.740Z,33.23
2023-10-26T11:51:47.403Z,33.19
2023-10-26T11:54:23.916Z,33.22
2023-10-26T11:56:54.051Z,33.21
2023-10-26T11:59:24.067Z,33.22
2023-10-26T12:01:54.648Z,33.17
2023-10-26T12:04:27.614Z,33.14
2023-10-26T12:06:58.403Z,33.09
2023-10-26T12:09:28.671Z,33.20
2023-10-26T12:11:58.968Z,33.17
2023-10-26T12:14:28.897Z,33.18
2023-10-26T12:16:59.577Z,33.17
2023-10-26T12:19:32.070Z,33.20
2023-10-26T12:22:03.048Z,33.16
2023-10-26T12:24:33.207Z,33.16
2023-10-26T12:27:06.068Z,33.12
2023-10-26T12:29:36.044Z,33.15
2023-10-26T12:32:06.605Z,33.12
2023-10-26T12:34:39.954Z,33.10
2023-10-26T12:37:10.309Z,33.13
2023-10-26T12:39:43.215Z,33.12
2023-10-26T12:42:13.877Z,33.16
2023-10-26T12:44:44.928Z,33.10
2023-10-26T12:47:17.309Z,33.08
2023-10-26T12:49:47.170Z,33.09
2023-10-26T12:52:19.932Z,33.08
2023-10-26T12:54:50.131Z,33.05
2023-10-26T12:57:21.602Z,33.10
2023-10-26T12:59:52.708Z,33.05
2023-10-26T13:02:22.610Z,33.02
2023-10-26T13:04:52.495Z,32.97
2023-10-26T13:07:25.393Z,33.01
2023-10-26T13:09:55.311Z,33.04
2023-10-26T13:12:25.550Z,33.04
2023-10-26T13:14:56.880Z,33.03
2023-10-26T13:17:37.917Z,33.03
2023-10-26T13:20:08.928Z,33.00
2023-10-26T13:22:38.902Z,32.96
2023-10-26T13:25:09.507Z,32.96
2023-10-26T13:27:40.078Z,32.93
2023-10-26T13:30:10.537Z,32.94
2023-10-26T13:32:40.606Z,32.94
2023-10-26T13:35:11.775Z,32.87
2023-10-26T13:37:42.206Z,32.81
2023-10-26T13:40:12.612Z,32.77
2023-10-26T13:42:43.035Z,32.76
2023-10-26T13:45:16.345Z,32.76
2023-10-26T13:47:46.395Z,32.71
2023-10-26T13:50:16.747Z,32.68
2023-10-26T13:52:49.056Z,32.67
2023-10-26T13:55:18.794Z,32.65
2023-10-26T13:57:48.914Z,32.63
2023-10-26T14:00:20.084Z,32.66
2023-10-26T14:02:50.014Z,32.66
2023-10-26T14:05:30.146Z,32.65
2023-10-26T14:08:00.876Z,32.63
2023-10-26T14:10:33.094Z,32.66
2023-10-26T14:13:07.139Z,32.66
2023-10-26T14:15:37.632Z,32.64
2023-10-26T14:18:07.618Z,32.67
2023-10-26T14:20:38.498Z,32.64
2023-10-26T14:23:11.339Z,32.61
2023-10-26T14:25:41.286Z,32.59
2023-10-26T14:28:10.935Z,32.61
2023-10-26T14:30:40.745Z,32.60
2023-10-26T14:33:10.786Z,32.54
2023-10-26T14:35:43.477Z,32.54
2023-10-26T14:38:16.312Z,32.59
2023-10-26T14:40:47.337Z,32.52
2023-10-26T14:43:17.485Z,32.51
2023-10-26T14:45:47.359Z,32.50
2023-10-26T14:48:20.210Z,32.52
2023-10-26T14:51:01.186Z,32.47
2023-10-26T14:53:31.194Z,32.48
2023-10-26T14:56:06.120Z,32.45
2023-10-26T14:58:38.589Z,32.48
2023-10-26T15:01:15.153Z,32.44
2023-10-26T15:03:44.958Z,32.49
2023-10-26T15:06:15.419Z,32.45
2023-10-26T15:08:45.710Z,32.39
2023-10-26T15:11:23.596Z,32.42
2023-10-26T15:13:57.709Z,32.42
2023-10-26T15:16:30.001Z,32.46
2023-10-26T15:19:00.635Z,32.44
2023-10-26T15:21:30.673Z,32.30
2023-10-26T15:24:03.621Z,32.30
2023-10-26T15:26:33.978Z,32.30
2023-10-26T15:29:04.087Z,32.30
2023-10-26T15:31:36.945Z,32.34
2023-10-26T15:34:06.801Z,32.31
2023-10-26T15:36:37.018Z,32.28
2023-10-26T15:39:06.869Z,32.28
2023-10-26T15:41:44.515Z,32.21
2023-10-26T15:44:14.409Z,32.22
2023-10-26T15:46:44.238Z,32.22
2023-10-26T15:49:34.140Z,32.19
2023-10-26T15:52:04.092Z,32.17
2023-10-26T15:54:34.113Z,32.14
2023-10-26T15:57:04.278Z,32.12
2023-10-26T15:59:36.630Z,32.09
2023-10-26T16:02:07.675Z,32.04
2023-10-26T16:04:37.796Z,32.04
2023-10-26T16:07:08.123Z,32.01
2023-10-26T16:09:38.315Z,31.99
2023-10-26T16:12:10.208Z,31.96
2023-10-26T16:14:41.327Z,31.99
2023-10-26T16:17:11.114Z,31.98
2023-10-26T16:19:40.966Z,31.90
2023-10-26T16:22:12.628Z,31.76
2023-10-26T16:24:42.677Z,31.74
2023-10-26T16:27:13.599Z,31.72
2023-10-26T16:29:45.845Z,31.69
2023-10-26T16:32:19.244Z,31.65
2023-10-26T16:34:49.160Z,31.63
2023-10-26T16:37:19.179Z,31.59
2023-10-26T16:39:49.643Z,31.60
2023-10-26T16:42:19.579Z,31.59
2023-10-26T16:44:49.488Z,31.60
2023-10-26T16:47:19.322Z,31.56
2023-10-26T16:49:49.310Z,31.55
2023-10-26T16:52:19.149Z,31.51
2023-10-26T16:54:49.037Z,31.57
2023-10-26T16:57:18.953Z,31.48
2023-10-26T16:59:51.602Z,31.45
2023-10-26T17:02:21.457Z,31.46
2023-10-26T17:04:55.984Z,31.47
2023-10-26T17:07:27.032Z,31.40
2023-10-26T17:09:56.868Z,31.38
2023-10-26T17:12:26.906Z,31.33
2023-10-26T17:14:57.591Z,31.36
2023-10-26T17:17:28.219Z,31.31
2023-10-26T17:19:58.150Z,31.29
2023-10-26T17:22:30.544Z,31.27
2023-10-26T17:25:00.662Z,31.28
2023-10-26T17:27:33.948Z,31.28
2023-10-26T17:30:04.658Z,31.27
2023-10-26T17:32:37.293Z,31.28
2023-10-26T17:35:08.155Z,31.24
2023-10-26T17:37:38.366Z,31.25
2023-10-26T17:40:08.992Z,31.24
2023-10-26T17:42:39.516Z,31.30
2023-10-26T17:45:10.366Z,31.27
2023-10-26T17:47:40.364Z,31.25
2023-10-26T17:50:10.932Z,31.18
2023-10-26T17:52:40.780Z,31.07
2023-10-26T17:55:13.921Z,31.11
2023-10-26T17:57:46.707Z,31.04
2023-10-26T18:00:18.254Z,31.04
2023-10-26T18:02:48.265Z,31.03
2023-10-26T18:05:19.003Z,31.05
2023-10-26T18:07:49.310Z,31.18
2023-10-26T18:10:21.181Z,31.09
2023-10-26T18:12:52.615Z,31.03
2023-10-26T18:15:24.786Z,31.01
2023-10-26T18:17:54.679Z,30.94
2023-10-26T18:20:24.581Z,30.97
2023-10-26T18:22:54.453Z,30.88
2023-10-26T18:25:24.399Z,30.93
2023-10-26T18:27:54.552Z,30.90
2023-10-26T18:30:25.028Z,31.08
2023-10-26T18:32:56.248Z,30.99
2023-10-26T18:35:31.104Z,31.06
2023-10-26T18:38:01.009Z,30.88
2023-10-26T18:40:31.893Z,30.84
2023-10-26T18:43:02.275Z,30.78
2023-10-26T18:45:32.097Z,30.78
2023-10-26T18:48:02.834Z,30.85
2023-10-26T18:50:34.539Z,30.77
2023-10-26T18:53:06.463Z,30.71
2023-10-26T18:55:36.931Z,30.67
2023-10-26T18:58:06.890Z,30.81
2023-10-26T19:00:36.917Z,30.75
2023-10-26T19:03:07.029Z,30.75
2023-10-26T19:05:37.298Z,30.71
2023-10-26T19:08:10.124Z,30.75
2023-10-26T19:10:40.709Z,30.76
2023-10-26T19:13:11.277Z,30.72
2023-10-26T19:15:41.627Z,30.71
2023-10-26T19:18:11.363Z,30.72
2023-10-26T19:20:42.998Z,30.62
2023-10-26T19:23:13.029Z,30.68
2023-10-26T19:25:43.659Z,30.63
2023-10-26T19:28:13.574Z,30.58
2023-10-26T19:30:43.696Z,30.61
2023-10-26T19:33:13.835Z,30.57
2023-10-26T19:35:47.772Z,30.53
2023-10-26T19:38:21.290Z,30.52
2023-10-26T19:40:51.334Z,30.53
2023-10-26T19:43:22.261Z,30.58
2023-10-26T19:45:52.218Z,30.53
2023-10-26T19:48:22.267Z,30.63
2023-10-26T19:50:54.618Z,30.58
2023-10-26T19:53:24.595Z,30.59
2023-10-26T19:55:55.304Z,30.62
2023-10-26T19:58:25.476Z,30.58
2023-10-26T20:00:55.668Z,30.63
2023-10-26T20:03:25.485Z,30.66
2023-10-26T20:05:55.092Z,30.57
2023-10-26T20:08:24.901Z,30.58
2023-10-26T20:10:54.751Z,30.55
2023-10-26T20:13:24.626Z,30.58
2023-10-26T20:15:54.789Z,30.59
2023-10-26T20:18:25.316Z,30.62
2023-10-26T20:20:55.527Z,30.58
2023-10-26T20:23:25.325Z,30.59
2023-10-26T20:25:58.493Z,30.55
2023-10-26T20:28:28.360Z,30.60
2023-10-26T20:31:00.089Z,30.52
2023-10-26T20:33:29.869Z,30.59
2023-10-26T20:35:59.873Z,30.49
2023-10-26T20:38:30.448Z,30.50
2023-10-26T20:41:02.767Z,30.53
2023-10-26T20:43:32.735Z,30.57
2023-10-26T20:46:03.448Z,30.54
2023-10-26T20:48:34.188Z,30.53
2023-10-26T20:51:09.269Z,30.53
2023-10-26T20:53:42.279Z,30.52
2023-10-26T20:56:12.806Z,30.49
2023-10-26T20:58:42.404Z,30.52
2023-10-26T21:01:15.690Z,30.50
2023-10-26T21:03:47.703Z,30.48
2023-10-26T21:06:17.699Z,30.51
2023-10-26T21:08:52.151Z,30.44
2023-10-26T21:11:22.059Z,30.46
2023-10-26T21:13:51.940Z,30.47
2023-10-26T21:16:21.939Z,30.43
2023-10-26T21:18:52.074Z,30.40
2023-10-26T21:21:21.889Z,30.37
2023-10-26T21:23:51.830Z,30.39
2023-10-26T21:26:21.576Z,30.38
2023-10-26T21:28:56.117Z,30.33
2023-10-26T21:31:26.187Z,30.30
2023-10-26T21:33:56.340Z,30.31
2023-10-26T21:36:26.382Z,30.31
2023-10-26T21:38:56.239Z,30.30
2023-10-26T21:41:26.125Z,30.32
2023-10-26T21:43:56.210Z,30.32
2023-10-26T21:46:26.457Z,30.24
2023-10-26T21:48:56.803Z,30.26
2023-10-26T21:51:26.488Z,30.23
2023-10-26T21:53:56.321Z,30.22
2023-10-26T21:56:26.777Z,30.19
2023-10-26T21:58:58.321Z,30.17
2023-10-26T22:01:29.447Z,30.19
2023-10-26T22:04:18.019Z,30.17
2023-10-26T22:06:50.124Z,30.21
2023-10-26T22:09:22.946Z,30.19
2023-10-26T22:11:53.658Z,30.20
2023-10-26T22:14:23.573Z,30.17
2023-10-26T22:16:53.730Z,30.16
2023-10-26T22:19:23.540Z,30.15
2023-10-26T22:21:53.306Z,30.17
2023-10-26T22:24:23.669Z,30.23
2023-10-26T22:26:54.749Z,30.23
2023-10-26T22:29:30.356Z,30.20
2023-10-26T22:32:01.053Z,30.19
2023-10-26T22:34:32.203Z,30.23
2023-10-26T22:37:02.336Z,30.26
2023-10-26T22:39:35.018Z,30.24
2023-10-26T22:42:04.952Z,30.26
2023-10-26T22:44:35.416Z,30.24
2023-10-26T22:47:07.517Z,30.24
2023-10-26T22:49:37.506Z,30.19
2023-10-26T22:52:08.424Z,30.22
2023-10-26T22:54:38.448Z,30.22
2023-10-26T22:57:08.404Z,30.23
2023-10-26T22:59:38.588Z,30.24
2023-10-26T23:02:09.328Z,30.24
2023-10-26T23:04:39.447Z,30.27
2023-10-26T23:07:09.447Z,30.15
2023-10-26T23:09:39.306Z,30.21
2023-10-26T23:12:09.339Z,30.25
2023-10-26T23:14:39.287Z,30.28
2023-10-26T23:17:12.069Z,30.26
2023-10-26T23:19:41.848Z,30.28
2023-10-26T23:22:12.064Z,30.28
2023-10-26T23:24:42.074Z,30.33
2023-10-26T23:27:12.180Z,30.35
2023-10-26T23:29:42.059Z,30.26
2023-10-26T23:32:15.065Z,30.22
2023-10-26T23:34:45.245Z,30.29
2023-10-26T23:37:16.998Z,30.36
2023-10-26T23:39:46.860Z,30.38
2023-10-26T23:42:17.573Z,30.36
2023-10-26T23:44:51.680Z,30.38
2023-10-26T23:47:21.587Z,30.32
2023-10-26T23:49:52.392Z,30.39
2023-10-26T23:52:22.627Z,30.31
2023-10-26T23:54:54.101Z,30.23
2023-10-26T23:57:24.241Z,30.28
